sensor_id;sensor_type;location;lat;lon;timestamp;P1;durP1;ratioP1;P2;durP2;ratioP2
67248;SDS011;63247;54.300;18.592;2024-01-11T00:02:19;15.65;;;4.97;;
67248;SDS011;63247;54.300;18.592;2024-01-11T00:04:45;17.65;;;5.80;;
67248;SDS011;63247;54.300;18.592;2024-01-11T00:07:10;14.53;;;4.77;;
67248;SDS011;63247;54.300;18.592;2024-01-11T00:09:42;13.83;;;4.73;;
67248;SDS011;63247;54.300;18.592;2024-01-11T00:12:08;12.35;;;4.38;;
67248;SDS011;63247;54.300;18.592;2024-01-11T00:14:33;12.73;;;4.55;;
67248;SDS011;63247;54.300;18.592;2024-01-11T00:17:00;14.60;;;4.60;;
67248;SDS011;63247;54.300;18.592;2024-01-11T00:19:25;12.82;;;4.05;;
67248;SDS011;63247;54.300;18.592;2024-01-11T00:21:51;15.73;;;4.97;;
67248;SDS011;63247;54.300;18.592;2024-01-11T00:24:16;16.07;;;5.27;;
67248;SDS011;63247;54.300;18.592;2024-01-11T00:26:41;14.30;;;4.93;;
67248;SDS011;63247;54.300;18.592;2024-01-11T00:29:07;14.20;;;5.03;;
67248;SDS011;63247;54.300;18.592;2024-01-11T00:31:32;15.80;;;5.47;;
67248;SDS011;63247;54.300;18.592;2024-01-11T00:33:58;18.97;;;6.30;;
67248;SDS011;63247;54.300;18.592;2024-01-11T00:36:24;16.77;;;5.70;;
67248;SDS011;63247;54.300;18.592;2024-01-11T00:38:49;16.37;;;6.27;;
67248;SDS011;63247;54.300;18.592;2024-01-11T00:41:14;17.73;;;6.43;;
67248;SDS011;63247;54.300;18.592;2024-01-11T00:43:40;16.70;;;5.60;;
67248;SDS011;63247;54.300;18.592;2024-01-11T00:46:05;16.60;;;6.40;;
67248;SDS011;63247;54.300;18.592;2024-01-11T00:48:30;14.77;;;5.53;;
67248;SDS011;63247;54.300;18.592;2024-01-11T00:50:56;17.23;;;6.13;;
67248;SDS011;63247;54.300;18.592;2024-01-11T00:53:21;15.00;;;5.45;;
67248;SDS011;63247;54.300;18.592;2024-01-11T00:55:47;17.00;;;6.03;;
67248;SDS011;63247;54.300;18.592;2024-01-11T00:58:12;16.00;;;5.90;;
67248;SDS011;63247;54.300;18.592;2024-01-11T01:00:37;17.37;;;6.00;;
67248;SDS011;63247;54.300;18.592;2024-01-11T01:03:03;15.93;;;5.77;;
67248;SDS011;63247;54.300;18.592;2024-01-11T01:05:29;16.60;;;5.57;;
67248;SDS011;63247;54.300;18.592;2024-01-11T01:07:54;16.10;;;5.90;;
67248;SDS011;63247;54.300;18.592;2024-01-11T01:10:19;16.17;;;5.93;;
67248;SDS011;63247;54.300;18.592;2024-01-11T01:12:45;16.70;;;6.00;;
67248;SDS011;63247;54.300;18.592;2024-01-11T01:15:10;18.88;;;6.70;;
67248;SDS011;63247;54.300;18.592;2024-01-11T01:17:36;17.88;;;6.00;;
67248;SDS011;63247;54.300;18.592;2024-01-11T01:20:02;18.33;;;6.35;;
67248;SDS011;63247;54.300;18.592;2024-01-11T01:22:28;14.87;;;5.70;;
67248;SDS011;63247;54.300;18.592;2024-01-11T01:24:53;16.73;;;6.40;;
67248;SDS011;63247;54.300;18.592;2024-01-11T01:27:19;16.58;;;6.03;;
67248;SDS011;63247;54.300;18.592;2024-01-11T01:29:44;20.00;;;6.87;;
67248;SDS011;63247;54.300;18.592;2024-01-11T01:32:11;17.83;;;6.25;;
67248;SDS011;63247;54.300;18.592;2024-01-11T01:34:36;17.80;;;6.07;;
67248;SDS011;63247;54.300;18.592;2024-01-11T01:37:01;16.57;;;6.13;;
67248;SDS011;63247;54.300;18.592;2024-01-11T01:39:27;17.33;;;7.25;;
67248;SDS011;63247;54.300;18.592;2024-01-11T01:41:52;16.20;;;6.18;;
67248;SDS011;63247;54.300;18.592;2024-01-11T01:44:18;15.87;;;5.53;;
67248;SDS011;63247;54.300;18.592;2024-01-11T01:46:43;18.63;;;6.50;;
67248;SDS011;63247;54.300;18.592;2024-01-11T01:49:09;18.33;;;6.57;;
67248;SDS011;63247;54.300;18.592;2024-01-11T01:51:36;17.85;;;6.40;;
67248;SDS011;63247;54.300;18.592;2024-01-11T01:54:01;15.90;;;5.67;;
67248;SDS011;63247;54.300;18.592;2024-01-11T01:56:28;14.60;;;5.95;;
67248;SDS011;63247;54.300;18.592;2024-01-11T01:58:53;15.82;;;6.28;;
67248;SDS011;63247;54.300;18.592;2024-01-11T02:01:20;16.23;;;5.43;;
67248;SDS011;63247;54.300;18.592;2024-01-11T02:03:46;16.13;;;5.93;;
67248;SDS011;63247;54.300;18.592;2024-01-11T02:06:17;13.85;;;5.93;;
67248;SDS011;63247;54.300;18.592;2024-01-11T02:08:44;14.38;;;5.90;;
67248;SDS011;63247;54.300;18.592;2024-01-11T02:11:10;15.30;;;5.83;;
67248;SDS011;63247;54.300;18.592;2024-01-11T02:13:36;14.05;;;5.53;;
67248;SDS011;63247;54.300;18.592;2024-01-11T02:16:01;14.43;;;5.40;;
67248;SDS011;63247;54.300;18.592;2024-01-11T02:18:27;12.32;;;5.18;;
67248;SDS011;63247;54.300;18.592;2024-01-11T02:20:52;10.57;;;4.40;;
67248;SDS011;63247;54.300;18.592;2024-01-11T02:23:19;13.50;;;5.20;;
67248;SDS011;63247;54.300;18.592;2024-01-11T02:25:49;14.18;;;5.03;;
67248;SDS011;63247;54.300;18.592;2024-01-11T02:28:14;12.37;;;5.00;;
67248;SDS011;63247;54.300;18.592;2024-01-11T02:30:39;12.87;;;4.27;;
67248;SDS011;63247;54.300;18.592;2024-01-11T02:33:05;12.73;;;5.00;;
67248;SDS011;63247;54.300;18.592;2024-01-11T02:35:31;12.35;;;5.13;;
67248;SDS011;63247;54.300;18.592;2024-01-11T02:37:57;19.45;;;5.15;;
67248;SDS011;63247;54.300;18.592;2024-01-11T02:40:24;13.45;;;5.00;;
67248;SDS011;63247;54.300;18.592;2024-01-11T02:42:51;13.43;;;5.30;;
67248;SDS011;63247;54.300;18.592;2024-01-11T02:45:16;13.90;;;5.17;;
67248;SDS011;63247;54.300;18.592;2024-01-11T02:47:42;14.83;;;5.40;;
67248;SDS011;63247;54.300;18.592;2024-01-11T02:50:07;16.87;;;5.30;;
67248;SDS011;63247;54.300;18.592;2024-01-11T02:52:33;15.55;;;5.03;;
67248;SDS011;63247;54.300;18.592;2024-01-11T02:54:59;15.05;;;4.90;;
67248;SDS011;63247;54.300;18.592;2024-01-11T02:57:24;12.80;;;5.27;;
67248;SDS011;63247;54.300;18.592;2024-01-11T02:59:50;11.90;;;4.57;;
67248;SDS011;63247;54.300;18.592;2024-01-11T03:02:16;12.63;;;5.05;;
67248;SDS011;63247;54.300;18.592;2024-01-11T03:04:41;13.00;;;4.80;;
67248;SDS011;63247;54.300;18.592;2024-01-11T03:07:07;14.27;;;4.60;;
67248;SDS011;63247;54.300;18.592;2024-01-11T03:09:32;12.30;;;5.10;;
67248;SDS011;63247;54.300;18.592;2024-01-11T03:11:59;12.45;;;4.75;;
67248;SDS011;63247;54.300;18.592;2024-01-11T03:14:24;11.20;;;3.95;;
67248;SDS011;63247;54.300;18.592;2024-01-11T03:16:50;11.82;;;4.32;;
67248;SDS011;63247;54.300;18.592;2024-01-11T03:19:15;13.03;;;5.30;;
67248;SDS011;63247;54.300;18.592;2024-01-11T03:21:43;13.00;;;4.90;;
67248;SDS011;63247;54.300;18.592;2024-01-11T03:24:08;8.07;;;3.35;;
67248;SDS011;63247;54.300;18.592;2024-01-11T03:26:34;11.27;;;4.30;;
67248;SDS011;63247;54.300;18.592;2024-01-11T03:28:59;10.23;;;4.20;;
67248;SDS011;63247;54.300;18.592;2024-01-11T03:31:25;11.37;;;4.53;;
67248;SDS011;63247;54.300;18.592;2024-01-11T03:33:50;13.20;;;4.55;;
67248;SDS011;63247;54.300;18.592;2024-01-11T03:36:16;13.07;;;4.32;;
67248;SDS011;63247;54.300;18.592;2024-01-11T03:38:41;13.40;;;4.43;;
67248;SDS011;63247;54.300;18.592;2024-01-11T03:41:07;16.67;;;4.37;;
67248;SDS011;63247;54.300;18.592;2024-01-11T03:43:34;11.25;;;3.90;;
67248;SDS011;63247;54.300;18.592;2024-01-11T03:46:00;11.13;;;4.00;;
67248;SDS011;63247;54.300;18.592;2024-01-11T03:48:26;11.63;;;4.37;;
67248;SDS011;63247;54.300;18.592;2024-01-11T03:50:51;12.57;;;4.83;;
67248;SDS011;63247;54.300;18.592;2024-01-11T03:53:17;10.95;;;4.60;;
67248;SDS011;63247;54.300;18.592;2024-01-11T03:55:43;13.30;;;4.47;;
67248;SDS011;63247;54.300;18.592;2024-01-11T03:58:08;11.67;;;4.77;;
67248;SDS011;63247;54.300;18.592;2024-01-11T04:00:34;11.17;;;4.63;;
67248;SDS011;63247;54.300;18.592;2024-01-11T04:02:59;11.40;;;4.30;;
67248;SDS011;63247;54.300;18.592;2024-01-11T04:05:24;13.53;;;5.10;;
67248;SDS011;63247;54.300;18.592;2024-01-11T04:07:50;13.60;;;5.40;;
67248;SDS011;63247;54.300;18.592;2024-01-11T04:10:16;13.77;;;5.30;;
67248;SDS011;63247;54.300;18.592;2024-01-11T04:12:42;15.43;;;5.72;;
67248;SDS011;63247;54.300;18.592;2024-01-11T04:15:08;17.20;;;5.43;;
67248;SDS011;63247;54.300;18.592;2024-01-11T04:17:33;14.68;;;5.05;;
67248;SDS011;63247;54.300;18.592;2024-01-11T04:19:59;14.40;;;5.03;;
67248;SDS011;63247;54.300;18.592;2024-01-11T04:22:24;18.80;;;5.60;;
67248;SDS011;63247;54.300;18.592;2024-01-11T04:24:50;14.63;;;5.77;;
67248;SDS011;63247;54.300;18.592;2024-01-11T04:27:15;13.23;;;4.97;;
67248;SDS011;63247;54.300;18.592;2024-01-11T04:29:40;13.17;;;4.17;;
67248;SDS011;63247;54.300;18.592;2024-01-11T04:32:06;16.23;;;5.07;;
67248;SDS011;63247;54.300;18.592;2024-01-11T04:34:31;10.82;;;3.78;;
67248;SDS011;63247;54.300;18.592;2024-01-11T04:36:56;14.63;;;5.27;;
67248;SDS011;63247;54.300;18.592;2024-01-11T04:39:22;13.83;;;5.70;;
67248;SDS011;63247;54.300;18.592;2024-01-11T04:41:47;13.60;;;4.83;;
67248;SDS011;63247;54.300;18.592;2024-01-11T04:44:13;15.17;;;5.00;;
67248;SDS011;63247;54.300;18.592;2024-01-11T04:46:38;9.97;;;4.17;;
67248;SDS011;63247;54.300;18.592;2024-01-11T04:49:03;14.70;;;5.32;;
67248;SDS011;63247;54.300;18.592;2024-01-11T04:51:29;12.73;;;4.47;;
67248;SDS011;63247;54.300;18.592;2024-01-11T04:53:54;14.50;;;5.37;;
67248;SDS011;63247;54.300;18.592;2024-01-11T04:56:19;12.73;;;4.70;;
67248;SDS011;63247;54.300;18.592;2024-01-11T04:58:45;16.43;;;5.67;;
67248;SDS011;63247;54.300;18.592;2024-01-11T05:01:14;20.65;;;5.80;;
67248;SDS011;63247;54.300;18.592;2024-01-11T05:03:44;12.43;;;4.83;;
67248;SDS011;63247;54.300;18.592;2024-01-11T05:06:16;15.40;;;5.85;;
67248;SDS011;63247;54.300;18.592;2024-01-11T05:08:43;17.10;;;5.68;;
67248;SDS011;63247;54.300;18.592;2024-01-11T05:11:16;17.23;;;5.47;;
67248;SDS011;63247;54.300;18.592;2024-01-11T05:13:49;18.05;;;5.43;;
67248;SDS011;63247;54.300;18.592;2024-01-11T05:16:22;12.17;;;5.23;;
67248;SDS011;63247;54.300;18.592;2024-01-11T05:18:50;18.30;;;5.75;;
67248;SDS011;63247;54.300;18.592;2024-01-11T05:21:17;18.23;;;6.10;;
67248;SDS011;63247;54.300;18.592;2024-01-11T05:23:42;19.73;;;6.47;;
67248;SDS011;63247;54.300;18.592;2024-01-11T05:26:08;16.45;;;5.40;;
67248;SDS011;63247;54.300;18.592;2024-01-11T05:28:34;15.48;;;5.40;;
67248;SDS011;63247;54.300;18.592;2024-01-11T05:31:00;14.77;;;4.97;;
67248;SDS011;63247;54.300;18.592;2024-01-11T05:33:25;15.90;;;5.40;;
67248;SDS011;63247;54.300;18.592;2024-01-11T05:35:51;14.23;;;5.28;;
67248;SDS011;63247;54.300;18.592;2024-01-11T05:38:18;17.38;;;6.68;;
67248;SDS011;63247;54.300;18.592;2024-01-11T05:40:44;21.10;;;7.30;;
67248;SDS011;63247;54.300;18.592;2024-01-11T05:43:09;16.77;;;6.20;;
67248;SDS011;63247;54.300;18.592;2024-01-11T05:45:35;14.80;;;5.20;;
67248;SDS011;63247;54.300;18.592;2024-01-11T05:48:00;14.23;;;5.77;;
67248;SDS011;63247;54.300;18.592;2024-01-11T05:50:26;13.32;;;5.25;;
67248;SDS011;63247;54.300;18.592;2024-01-11T05:52:51;12.00;;;5.80;;
67248;SDS011;63247;54.300;18.592;2024-01-11T05:55:18;13.52;;;5.45;;
67248;SDS011;63247;54.300;18.592;2024-01-11T05:57:44;15.30;;;5.50;;
67248;SDS011;63247;54.300;18.592;2024-01-11T06:00:10;15.98;;;5.43;;
67248;SDS011;63247;54.300;18.592;2024-01-11T06:02:36;16.13;;;6.37;;
67248;SDS011;63247;54.300;18.592;2024-01-11T06:05:01;9.20;;;4.00;;
67248;SDS011;63247;54.300;18.592;2024-01-11T06:07:27;15.27;;;6.05;;
67248;SDS011;63247;54.300;18.592;2024-01-11T06:09:54;12.23;;;5.33;;
67248;SDS011;63247;54.300;18.592;2024-01-11T06:12:19;13.88;;;5.47;;
67248;SDS011;63247;54.300;18.592;2024-01-11T06:14:44;10.87;;;4.20;;
67248;SDS011;63247;54.300;18.592;2024-01-11T06:17:10;14.30;;;5.90;;
67248;SDS011;63247;54.300;18.592;2024-01-11T06:19:36;14.52;;;5.60;;
67248;SDS011;63247;54.300;18.592;2024-01-11T06:22:03;12.07;;;5.10;;
67248;SDS011;63247;54.300;18.592;2024-01-11T06:24:29;14.93;;;5.32;;
67248;SDS011;63247;54.300;18.592;2024-01-11T06:26:54;13.50;;;5.10;;
67248;SDS011;63247;54.300;18.592;2024-01-11T06:29:20;11.90;;;4.83;;
67248;SDS011;63247;54.300;18.592;2024-01-11T06:31:45;12.60;;;5.20;;
67248;SDS011;63247;54.300;18.592;2024-01-11T06:34:10;13.87;;;5.40;;
67248;SDS011;63247;54.300;18.592;2024-01-11T06:36:36;12.30;;;4.83;;
67248;SDS011;63247;54.300;18.592;2024-01-11T06:39:01;14.97;;;4.87;;
67248;SDS011;63247;54.300;18.592;2024-01-11T06:41:26;14.07;;;5.50;;
67248;SDS011;63247;54.300;18.592;2024-01-11T06:43:52;13.77;;;4.80;;
67248;SDS011;63247;54.300;18.592;2024-01-11T06:46:20;13.40;;;5.33;;
67248;SDS011;63247;54.300;18.592;2024-01-11T06:48:47;12.77;;;4.70;;
67248;SDS011;63247;54.300;18.592;2024-01-11T06:51:15;13.20;;;4.90;;
67248;SDS011;63247;54.300;18.592;2024-01-11T06:53:41;12.43;;;4.43;;
67248;SDS011;63247;54.300;18.592;2024-01-11T06:56:17;15.07;;;4.67;;
67248;SDS011;63247;54.300;18.592;2024-01-11T06:58:44;12.30;;;5.10;;
67248;SDS011;63247;54.300;18.592;2024-01-11T07:01:10;18.17;;;6.60;;
67248;SDS011;63247;54.300;18.592;2024-01-11T07:03:36;16.27;;;6.37;;
67248;SDS011;63247;54.300;18.592;2024-01-11T07:06:02;15.63;;;5.88;;
67248;SDS011;63247;54.300;18.592;2024-01-11T07:08:28;18.48;;;5.93;;
67248;SDS011;63247;54.300;18.592;2024-01-11T07:10:54;15.00;;;5.70;;
67248;SDS011;63247;54.300;18.592;2024-01-11T07:13:19;12.53;;;4.97;;
67248;SDS011;63247;54.300;18.592;2024-01-11T07:15:45;16.38;;;5.25;;
67248;SDS011;63247;54.300;18.592;2024-01-11T07:18:10;18.63;;;6.55;;
67248;SDS011;63247;54.300;18.592;2024-01-11T07:20:36;17.55;;;6.80;;
67248;SDS011;63247;54.300;18.592;2024-01-11T07:23:02;19.00;;;6.30;;
67248;SDS011;63247;54.300;18.592;2024-01-11T07:25:27;15.90;;;6.07;;
67248;SDS011;63247;54.300;18.592;2024-01-11T07:27:52;16.47;;;6.43;;
67248;SDS011;63247;54.300;18.592;2024-01-11T07:30:18;16.77;;;6.20;;
67248;SDS011;63247;54.300;18.592;2024-01-11T07:32:43;18.20;;;6.70;;
67248;SDS011;63247;54.300;18.592;2024-01-11T07:35:09;18.65;;;6.25;;
67248;SDS011;63247;54.300;18.592;2024-01-11T07:37:38;15.15;;;6.45;;
67248;SDS011;63247;54.300;18.592;2024-01-11T07:40:04;21.73;;;7.07;;
67248;SDS011;63247;54.300;18.592;2024-01-11T07:42:35;19.73;;;7.50;;
67248;SDS011;63247;54.300;18.592;2024-01-11T07:45:00;15.73;;;6.10;;
67248;SDS011;63247;54.300;18.592;2024-01-11T07:47:26;16.40;;;5.53;;
67248;SDS011;63247;54.300;18.592;2024-01-11T07:49:51;16.10;;;5.13;;
67248;SDS011;63247;54.300;18.592;2024-01-11T07:52:17;21.25;;;6.97;;
67248;SDS011;63247;54.300;18.592;2024-01-11T07:54:42;17.15;;;6.55;;
67248;SDS011;63247;54.300;18.592;2024-01-11T07:57:08;16.33;;;6.00;;
67248;SDS011;63247;54.300;18.592;2024-01-11T07:59:34;14.15;;;5.60;;
67248;SDS011;63247;54.300;18.592;2024-01-11T08:02:03;16.33;;;5.10;;
67248;SDS011;63247;54.300;18.592;2024-01-11T08:04:28;13.65;;;5.25;;
67248;SDS011;63247;54.300;18.592;2024-01-11T08:06:54;12.03;;;4.97;;
67248;SDS011;63247;54.300;18.592;2024-01-11T08:09:19;14.88;;;6.00;;
67248;SDS011;63247;54.300;18.592;2024-01-11T08:11:45;15.63;;;5.72;;
67248;SDS011;63247;54.300;18.592;2024-01-11T08:14:11;14.00;;;6.50;;
67248;SDS011;63247;54.300;18.592;2024-01-11T08:16:36;15.50;;;5.50;;
67248;SDS011;63247;54.300;18.592;2024-01-11T08:19:02;18.00;;;6.10;;
67248;SDS011;63247;54.300;18.592;2024-01-11T08:21:28;14.00;;;6.28;;
67248;SDS011;63247;54.300;18.592;2024-01-11T08:23:53;16.63;;;6.33;;
67248;SDS011;63247;54.300;18.592;2024-01-11T08:26:19;16.48;;;6.35;;
67248;SDS011;63247;54.300;18.592;2024-01-11T08:28:47;15.23;;;5.82;;
67248;SDS011;63247;54.300;18.592;2024-01-11T08:31:13;12.50;;;4.90;;
67248;SDS011;63247;54.300;18.592;2024-01-11T08:33:38;16.05;;;5.80;;
67248;SDS011;63247;54.300;18.592;2024-01-11T08:36:04;11.70;;;5.13;;
67248;SDS011;63247;54.300;18.592;2024-01-11T08:38:31;15.48;;;5.53;;
67248;SDS011;63247;54.300;18.592;2024-01-11T08:40:57;12.13;;;4.82;;
67248;SDS011;63247;54.300;18.592;2024-01-11T08:43:23;11.47;;;4.07;;
67248;SDS011;63247;54.300;18.592;2024-01-11T08:45:52;15.02;;;4.97;;
67248;SDS011;63247;54.300;18.592;2024-01-11T08:48:17;15.13;;;5.37;;
67248;SDS011;63247;54.300;18.592;2024-01-11T08:50:42;14.15;;;5.22;;
67248;SDS011;63247;54.300;18.592;2024-01-11T08:53:08;14.52;;;4.93;;
67248;SDS011;63247;54.300;18.592;2024-01-11T08:55:33;13.37;;;5.00;;
67248;SDS011;63247;54.300;18.592;2024-01-11T08:57:58;14.37;;;6.00;;
67248;SDS011;63247;54.300;18.592;2024-01-11T09:00:24;12.70;;;4.77;;
67248;SDS011;63247;54.300;18.592;2024-01-11T09:02:49;11.10;;;4.40;;
67248;SDS011;63247;54.300;18.592;2024-01-11T09:05:15;12.17;;;4.70;;
67248;SDS011;63247;54.300;18.592;2024-01-11T09:07:40;11.53;;;3.97;;
67248;SDS011;63247;54.300;18.592;2024-01-11T09:10:06;10.20;;;3.63;;
67248;SDS011;63247;54.300;18.592;2024-01-11T09:12:36;9.17;;;3.30;;
67248;SDS011;63247;54.300;18.592;2024-01-11T09:15:02;12.73;;;3.60;;
67248;SDS011;63247;54.300;18.592;2024-01-11T09:17:27;8.52;;;3.25;;
67248;SDS011;63247;54.300;18.592;2024-01-11T09:19:53;9.00;;;4.00;;
67248;SDS011;63247;54.300;18.592;2024-01-11T09:22:18;12.33;;;3.77;;
67248;SDS011;63247;54.300;18.592;2024-01-11T09:24:44;11.77;;;3.43;;
67248;SDS011;63247;54.300;18.592;2024-01-11T09:27:09;7.80;;;3.13;;
67248;SDS011;63247;54.300;18.592;2024-01-11T09:29:35;7.43;;;2.92;;
67248;SDS011;63247;54.300;18.592;2024-01-11T09:32:00;8.37;;;3.10;;
67248;SDS011;63247;54.300;18.592;2024-01-11T09:34:26;9.00;;;2.97;;
67248;SDS011;63247;54.300;18.592;2024-01-11T09:36:51;11.53;;;2.73;;
67248;SDS011;63247;54.300;18.592;2024-01-11T09:39:17;9.85;;;2.70;;
67248;SDS011;63247;54.300;18.592;2024-01-11T09:41:50;9.57;;;3.00;;
67248;SDS011;63247;54.300;18.592;2024-01-11T09:44:22;7.23;;;2.73;;
67248;SDS011;63247;54.300;18.592;2024-01-11T09:46:49;8.07;;;2.22;;
67248;SDS011;63247;54.300;18.592;2024-01-11T09:49:14;8.63;;;2.50;;
67248;SDS011;63247;54.300;18.592;2024-01-11T09:51:42;7.65;;;2.40;;
67248;SDS011;63247;54.300;18.592;2024-01-11T09:54:09;8.32;;;2.95;;
67248;SDS011;63247;54.300;18.592;2024-01-11T09:56:35;8.35;;;3.13;;
67248;SDS011;63247;54.300;18.592;2024-01-11T09:59:02;8.90;;;3.05;;
67248;SDS011;63247;54.300;18.592;2024-01-11T10:01:32;13.10;;;4.33;;
67248;SDS011;63247;54.300;18.592;2024-01-11T10:03:57;13.45;;;4.00;;
67248;SDS011;63247;54.300;18.592;2024-01-11T10:06:23;15.43;;;3.80;;
67248;SDS011;63247;54.300;18.592;2024-01-11T10:08:50;12.52;;;3.10;;
67248;SDS011;63247;54.300;18.592;2024-01-11T10:11:16;8.13;;;2.90;;
67248;SDS011;63247;54.300;18.592;2024-01-11T10:13:41;11.77;;;3.63;;
67248;SDS011;63247;54.300;18.592;2024-01-11T10:16:11;8.57;;;3.10;;
67248;SDS011;63247;54.300;18.592;2024-01-11T10:18:40;10.07;;;3.30;;
67248;SDS011;63247;54.300;18.592;2024-01-11T10:21:06;11.00;;;3.35;;
67248;SDS011;63247;54.300;18.592;2024-01-11T10:23:35;10.87;;;3.90;;
67248;SDS011;63247;54.300;18.592;2024-01-11T10:26:01;10.10;;;3.72;;
67248;SDS011;63247;54.300;18.592;2024-01-11T10:28:27;16.13;;;3.63;;
67248;SDS011;63247;54.300;18.592;2024-01-11T10:30:53;11.65;;;4.03;;
67248;SDS011;63247;54.300;18.592;2024-01-11T10:33:19;11.15;;;3.75;;
67248;SDS011;63247;54.300;18.592;2024-01-11T10:35:46;12.67;;;3.80;;
67248;SDS011;63247;54.300;18.592;2024-01-11T10:38:13;9.23;;;3.33;;
67248;SDS011;63247;54.300;18.592;2024-01-11T10:40:40;11.65;;;3.60;;
67248;SDS011;63247;54.300;18.592;2024-01-11T10:43:06;9.73;;;3.63;;
67248;SDS011;63247;54.300;18.592;2024-01-11T10:45:36;10.00;;;3.58;;
67248;SDS011;63247;54.300;18.592;2024-01-11T10:48:06;11.20;;;3.67;;
67248;SDS011;63247;54.300;18.592;2024-01-11T10:50:41;12.07;;;3.70;;
67248;SDS011;63247;54.300;18.592;2024-01-11T10:55:52;13.25;;;3.22;;
67248;SDS011;63247;54.300;18.592;2024-01-11T10:58:21;10.63;;;3.50;;
67248;SDS011;63247;54.300;18.592;2024-01-11T11:00:48;9.53;;;3.00;;
67248;SDS011;63247;54.300;18.592;2024-01-11T11:03:16;10.05;;;3.70;;
67248;SDS011;63247;54.300;18.592;2024-01-11T11:05:44;12.65;;;3.65;;
67248;SDS011;63247;54.300;18.592;2024-01-11T11:08:12;13.90;;;3.78;;
67248;SDS011;63247;54.300;18.592;2024-01-11T11:10:39;10.93;;;3.67;;
67248;SDS011;63247;54.300;18.592;2024-01-11T11:13:06;10.40;;;3.40;;
67248;SDS011;63247;54.300;18.592;2024-01-11T11:15:35;14.23;;;4.45;;
67248;SDS011;63247;54.300;18.592;2024-01-11T11:18:02;14.50;;;4.22;;
67248;SDS011;63247;54.300;18.592;2024-01-11T11:20:27;10.30;;;3.40;;
67248;SDS011;63247;54.300;18.592;2024-01-11T11:23:05;9.70;;;2.72;;
67248;SDS011;63247;54.300;18.592;2024-01-11T11:25:32;9.05;;;3.00;;
67248;SDS011;63247;54.300;18.592;2024-01-11T11:27:59;8.47;;;2.83;;
67248;SDS011;63247;54.300;18.592;2024-01-11T11:30:29;10.82;;;3.10;;
67248;SDS011;63247;54.300;18.592;2024-01-11T11:32:55;8.15;;;3.00;;
67248;SDS011;63247;54.300;18.592;2024-01-11T11:35:25;9.65;;;3.20;;
67248;SDS011;63247;54.300;18.592;2024-01-11T11:37:56;10.68;;;3.60;;
67248;SDS011;63247;54.300;18.592;2024-01-11T11:40:29;9.60;;;3.60;;
67248;SDS011;63247;54.300;18.592;2024-01-11T11:43:08;12.80;;;3.45;;
67248;SDS011;63247;54.300;18.592;2024-01-11T11:45:34;10.50;;;3.15;;
67248;SDS011;63247;54.300;18.592;2024-01-11T11:48:00;14.57;;;3.95;;
67248;SDS011;63247;54.300;18.592;2024-01-11T11:50:26;11.35;;;3.22;;
67248;SDS011;63247;54.300;18.592;2024-01-11T11:52:54;9.43;;;3.40;;
67248;SDS011;63247;54.300;18.592;2024-01-11T11:55:23;11.07;;;3.17;;
67248;SDS011;63247;54.300;18.592;2024-01-11T11:57:50;12.95;;;3.85;;
67248;SDS011;63247;54.300;18.592;2024-01-11T12:00:17;10.43;;;3.28;;
67248;SDS011;63247;54.300;18.592;2024-01-11T12:02:42;10.20;;;3.73;;
67248;SDS011;63247;54.300;18.592;2024-01-11T12:05:08;12.33;;;4.50;;
67248;SDS011;63247;54.300;18.592;2024-01-11T12:07:33;9.88;;;3.42;;
67248;SDS011;63247;54.300;18.592;2024-01-11T12:09:59;11.23;;;3.90;;
67248;SDS011;63247;54.300;18.592;2024-01-11T12:12:25;12.02;;;3.97;;
67248;SDS011;63247;54.300;18.592;2024-01-11T12:14:53;11.27;;;3.47;;
67248;SDS011;63247;54.300;18.592;2024-01-11T12:17:18;9.75;;;3.38;;
67248;SDS011;63247;54.300;18.592;2024-01-11T12:19:44;9.27;;;3.00;;
67248;SDS011;63247;54.300;18.592;2024-01-11T12:22:09;10.20;;;3.25;;
67248;SDS011;63247;54.300;18.592;2024-01-11T12:24:35;8.47;;;2.90;;
67248;SDS011;63247;54.300;18.592;2024-01-11T12:27:01;8.83;;;3.87;;
67248;SDS011;63247;54.300;18.592;2024-01-11T12:29:30;8.50;;;3.40;;
67248;SDS011;63247;54.300;18.592;2024-01-11T12:31:56;10.93;;;3.63;;
67248;SDS011;63247;54.300;18.592;2024-01-11T12:34:25;8.75;;;3.40;;
67248;SDS011;63247;54.300;18.592;2024-01-11T12:36:52;8.10;;;3.47;;
67248;SDS011;63247;54.300;18.592;2024-01-11T12:39:19;12.95;;;3.83;;
67248;SDS011;63247;54.300;18.592;2024-01-11T12:41:47;10.55;;;3.92;;
67248;SDS011;63247;54.300;18.592;2024-01-11T12:44:14;8.35;;;3.33;;
67248;SDS011;63247;54.300;18.592;2024-01-11T12:46:40;12.20;;;4.40;;
67248;SDS011;63247;54.300;18.592;2024-01-11T12:49:08;11.75;;;4.07;;
67248;SDS011;63247;54.300;18.592;2024-01-11T12:51:35;10.55;;;3.78;;
67248;SDS011;63247;54.300;18.592;2024-01-11T12:54:01;12.57;;;3.73;;
67248;SDS011;63247;54.300;18.592;2024-01-11T12:56:29;10.32;;;3.50;;
67248;SDS011;63247;54.300;18.592;2024-01-11T12:59:07;15.52;;;4.90;;
67248;SDS011;63247;54.300;18.592;2024-01-11T13:01:35;10.27;;;3.17;;
67248;SDS011;63247;54.300;18.592;2024-01-11T13:04:01;10.77;;;3.13;;
67248;SDS011;63247;54.300;18.592;2024-01-11T13:06:28;9.65;;;2.97;;
67248;SDS011;63247;54.300;18.592;2024-01-11T13:08:55;8.48;;;2.40;;
67248;SDS011;63247;54.300;18.592;2024-01-11T13:11:20;8.17;;;2.70;;
67248;SDS011;63247;54.300;18.592;2024-01-11T13:13:46;6.47;;;2.13;;
67248;SDS011;63247;54.300;18.592;2024-01-11T13:16:12;9.18;;;2.47;;
67248;SDS011;63247;54.300;18.592;2024-01-11T13:18:39;6.45;;;1.95;;
67248;SDS011;63247;54.300;18.592;2024-01-11T13:21:05;8.32;;;1.90;;
67248;SDS011;63247;54.300;18.592;2024-01-11T13:23:31;7.47;;;2.00;;
67248;SDS011;63247;54.300;18.592;2024-01-11T13:25:57;5.38;;;1.95;;
67248;SDS011;63247;54.300;18.592;2024-01-11T13:28:22;9.83;;;2.70;;
67248;SDS011;63247;54.300;18.592;2024-01-11T13:30:48;9.13;;;3.17;;
67248;SDS011;63247;54.300;18.592;2024-01-11T13:33:14;11.43;;;3.47;;
67248;SDS011;63247;54.300;18.592;2024-01-11T13:35:42;7.55;;;2.58;;
67248;SDS011;63247;54.300;18.592;2024-01-11T13:38:08;9.20;;;2.60;;
67248;SDS011;63247;54.300;18.592;2024-01-11T13:40:34;10.30;;;2.90;;
67248;SDS011;63247;54.300;18.592;2024-01-11T13:43:00;8.98;;;2.92;;
67248;SDS011;63247;54.300;18.592;2024-01-11T13:45:29;9.32;;;3.22;;
67248;SDS011;63247;54.300;18.592;2024-01-11T13:47:58;8.38;;;2.45;;
67248;SDS011;63247;54.300;18.592;2024-01-11T13:50:24;8.97;;;2.60;;
67248;SDS011;63247;54.300;18.592;2024-01-11T13:52:50;10.18;;;2.92;;
67248;SDS011;63247;54.300;18.592;2024-01-11T13:55:16;9.17;;;1.67;;
67248;SDS011;63247;54.300;18.592;2024-01-11T13:57:42;5.88;;;1.50;;
67248;SDS011;63247;54.300;18.592;2024-01-11T14:00:09;7.63;;;1.50;;
67248;SDS011;63247;54.300;18.592;2024-01-11T14:02:36;4.43;;;1.13;;
67248;SDS011;63247;54.300;18.592;2024-01-11T14:05:02;5.80;;;1.27;;
67248;SDS011;63247;54.300;18.592;2024-01-11T14:07:29;7.50;;;1.58;;
67248;SDS011;63247;54.300;18.592;2024-01-11T14:09:55;7.88;;;1.30;;
67248;SDS011;63247;54.300;18.592;2024-01-11T14:12:21;6.97;;;1.40;;
67248;SDS011;63247;54.300;18.592;2024-01-11T14:14:46;4.65;;;1.20;;
67248;SDS011;63247;54.300;18.592;2024-01-11T14:17:12;5.87;;;0.83;;
67248;SDS011;63247;54.300;18.592;2024-01-11T14:19:38;7.68;;;1.83;;
67248;SDS011;63247;54.300;18.592;2024-01-11T14:22:03;7.33;;;1.20;;